首页
METAR-TAF:

METAR-TAF

机场 :

Oshawa Executive Airport

奧沙華, 安大略省, 加拿大

纬度: 43-55-22N, 经度: 78-53-48W, 海拔: 140米

当前天气观测

该预报发布于45分钟前的23:00 UTC
风速6节,风向
温度 2°C
湿度 75%
气压 1016 hPa
能見度: 14.5公里
散云层高于7000英尺
多云层高于13000英尺
阴天层高于17000英尺

METAR: CYOO 132300Z AUTO 10006KT 9SM SCT070 BKN130 OVC170 02/M02 A2999 RMK SLP164

时间: 18:45 (23:45 UTC)

预报

该预报发布于4小时和6分钟前的19:39 UTC
预报有效从13日的 20点(UTC)到 14日的 08点(UTC)
风速12节,风向东南
能見度: 10公里
少量云层高于2500英尺
多云层高于22000英尺
从 14日的 0000点(UTC)
风速5节,风向
能見度: 10公里
多云层高于3000英尺
多云层高于11000英尺
短暂存在
从 14日的 02点(UTC)到 14日的 06点(UTC)
阴天层高于2000英尺
从 14日的 0600点(UTC)
风速7节,风向东转东北
能見度: 6.4公里
阴天层高于1200英尺
小雨, 轻雾
短暂存在
从 14日的 06点(UTC)到 14日的 08点(UTC)
能見度: 9.7公里
阴天层高于2500英尺
小雨, 轻雾

TAF: CYOO 131939Z 1320/1408 14012KT P6SM FEW025 BKN220 FM140000 10005KT P6SM BKN030 BKN110 TEMPO 1402/1406 OVC020 FM140600 06007KT 4SM -RA BR OVC012 TEMPO 1406/1408 6SM -RA BR OVC025 RMK FCST BASED ON AUTO OBS. NXT FCST BY 140200Z

超过4000个机场的气象观测和天气预报(METAR&TAF报告)。

可查询的气象台以黄色和红色小点在地图上表示。

将鼠标移到小点上方,可查看气象台名称。

然后点击查看天气观测和预报。

如需切换地图:点击带黑十字的绿色按钮放大地图;点击带横线的绿色按钮缩小地图;或者点击绿色箭头查看邻近地区的地图。


METAR-TAF: